This is the latest recevied weather packets stored in our database for station/object KK7KRZ. If no packets are shown the sender has not sent any weather packets the latest 10 day(s).
| Time | Temp. | Humidity | Pressure | Rain* | Wind** | Luminosity | Snow |
|---|---|---|---|---|---|---|---|
| 1777830983 | 22.22° C | 61% | 1011.4 hPa | 0 mm | - | 698 W/m² | - |
| 1777830680 | 21.67° C | 61% | 1011.3 hPa | 0 mm | - | 685 W/m² | - |
| 1777830376 | 21.67° C | 61% | 1011.3 hPa | 0 mm | - | 661 W/m² | - |
| 1777830074 | 21.67° C | 62% | 1011 hPa | 0 mm | - | 613 W/m² | - |
| 1777829769 | 21.11° C | 66% | 1011.4 hPa | 0 mm | - | 632 W/m² | - |
| 1777829465 | 21.11° C | 64% | 1011.3 hPa | 0 mm | - | 510 W/m² | - |
| 1777829162 | 20.56° C | 66% | 1011.2 hPa | 0 mm | - | 555 W/m² | - |
| 1777828860 | 20.56° C | 66% | 1011.4 hPa | 0 mm | - | 144 W/m² | - |
| 1777828556 | 20° C | 67% | 1011.4 hPa | 0 mm | - | 585 W/m² | - |
| 1777828254 | 20° C | 67% | 1011.4 hPa | 0 mm | - | 587 W/m² | - |
| 1777827949 | 19.44° C | 69% | 1011.4 hPa | 0 mm | - | 549 W/m² | - |
| 1777827647 | 19.44° C | 69% | 1011.2 hPa | 0 mm | - | 278 W/m² | - |
| 1777827344 | 18.89° C | 70% | 1011.4 hPa | 0 mm | - | 432 W/m² | - |
| 1777827040 | 19.44° C | 70% | 1011.3 hPa | 0 mm | - | 520 W/m² | - |
| 1777826737 | 18.89° C | 72% | 1011.4 hPa | 0 mm | - | 53 W/m² | - |
| 1777826434 | 18.89° C | 72% | 1011.4 hPa | 0 mm | - | 60 W/m² | - |
| 1777826131 | 18.33° C | 74% | 1011.2 hPa | 0 mm | - | 66 W/m² | - |
| 1777825828 | 17.78° C | 77% | 1011.4 hPa | 0 mm | - | 51 W/m² | - |
| 1777825525 | 17.22° C | 78% | 1011.4 hPa | 0 mm | - | 386 W/m² | - |
| 1777825223 | 17.22° C | 79% | 1011.6 hPa | 0 mm | - | 316 W/m² | - |
| 1777824920 | 16.67° C | 80% | 1011.5 hPa | 0 mm | - | 259 W/m² | - |
| 1777824616 | 16.67° C | 82% | 1011.7 hPa | 0 mm | - | 55 W/m² | - |
| 1777824313 | 16.11° C | 83% | 1011.5 hPa | 0 mm | - | 41 W/m² | - |
| 1777824009 | 16.11° C | 84% | 1011.7 hPa | 0 mm | - | 39 W/m² | - |
| 1777823705 | 15.56° C | 86% | 1011.7 hPa | 0 mm | - | 38 W/m² | - |
* Rain latest hour (hover to see other rain measurements)
** Current wind speed in m/s (hover to see current wind gust speed)